Time;durP1;ratioP1;P1;durP2;ratioP2;P2;SDS_P1;SDS_P2;PMS_P1;PMS_P2;Temp;Humidity;BMP_temperature;BMP_pressure;BME280_temperature;BME280_humidity;BME280_pressure;Samples;Min_cycle;Max_cycle;Signal;HPM_P1;HPM_P2
2023/05/02 00:01:58;;;;;;;;;2.00;2.00;;;;;23.49;36.60;102053.91;5077794;27;45415;-76
2023/05/02 00:04:23;;;;;;;;;2.00;2.00;;;;;23.65;36.98;102077.06;5077885;28;45256;-75
2023/05/02 00:06:51;;;;;;;;;2.00;1.00;;;;;23.59;36.78;102053.81;5077867;28;45380;-75
2023/05/02 00:09:16;;;;;;;;;3.00;2.67;;;;;23.61;36.77;102063.28;5078244;28;45273;-76
2023/05/02 00:11:42;;;;;;;;;2.00;2.00;;;;;23.60;36.78;102066.09;5077983;27;45295;-76
2023/05/02 00:14:07;;;;;;;;;2.00;2.00;;;;;23.61;36.59;102067.75;5077810;27;45285;-76
2023/05/02 00:16:32;;;;;;;;;3.67;2.00;;;;;23.54;36.48;102050.78;5077493;27;45920;-74
2023/05/02 00:18:58;;;;;;;;;2.00;2.00;;;;;23.60;36.63;102055.47;5077908;28;45372;-76
2023/05/02 00:21:23;;;;;;;;;2.00;2.00;;;;;23.65;36.91;102070.94;5077717;28;45316;-75
2023/05/02 00:23:50;;;;;;;;;2.33;2.33;;;;;23.36;36.63;102038.44;5077424;27;46141;-76
2023/05/02 00:26:15;;;;;;;;;3.00;3.00;;;;;23.66;36.65;102086.69;5077791;28;45332;-76
2023/05/02 00:28:41;;;;;;;;;1.00;1.00;;;;;23.53;37.01;102049.97;5077551;27;45351;-74
2023/05/02 00:31:06;;;;;;;;;1.33;1.33;;;;;23.66;36.56;102072.56;5077375;28;45427;-74
2023/05/02 00:33:31;;;;;;;;;2.00;1.00;;;;;23.62;36.55;102072.06;5077420;27;45389;-76
2023/05/02 00:35:57;;;;;;;;;3.00;2.00;;;;;23.64;36.24;102078.06;5077639;27;45385;-76
2023/05/02 00:38:22;;;;;;;;;2.00;2.00;;;;;23.38;36.26;102021.34;5077462;28;45316;-75
2023/05/02 00:40:51;;;;;;;;;2.00;2.00;;;;;23.57;36.33;102059.28;5077245;27;45456;-75
2023/05/02 00:43:16;;;;;;;;;2.33;2.33;;;;;23.65;36.79;102066.44;5077228;28;46435;-75
2023/05/02 00:45:43;;;;;;;;;2.67;2.67;;;;;23.50;36.58;102050.28;5077034;27;45327;-75
2023/05/02 00:48:09;;;;;;;;;2.67;2.00;;;;;23.65;36.46;102068.28;5077535;27;45396;-76
2023/05/02 00:50:37;;;;;;;;;2.00;2.00;;;;;23.52;36.29;102054.44;5077421;28;45431;-76
2023/05/02 00:53:04;;;;;;;;;5.00;2.00;;;;;23.64;36.34;102070.09;5077086;28;46460;-75
2023/05/02 00:55:31;;;;;;;;;2.00;2.00;;;;;23.61;36.70;102059.78;5076456;27;45285;-76
2023/05/02 00:57:57;;;;;;;;;2.33;2.00;;;;;23.66;36.74;102051.31;5076918;27;45361;-76
2023/05/02 01:00:30;;;;;;;;;1.00;1.00;;;;;23.65;36.18;102053.16;5077233;28;45428;-75
2023/05/02 01:03:11;;;;;;;;;2.00;2.00;;;;;23.63;36.42;102049.81;5076871;27;47064;-76
2023/05/02 01:05:58;;;;;;;;;2.00;2.00;;;;;23.59;36.83;102045.84;5076950;28;45356;-75
2023/05/02 01:08:41;;;;;;;;;1.33;1.33;;;;;23.63;36.54;102055.13;5077059;28;45451;-76
2023/05/02 01:11:10;;;;;;;;;3.00;2.00;;;;;23.63;36.49;102057.78;5076969;27;45517;-76
2023/05/02 01:13:37;;;;;;;;;1.00;1.00;;;;;23.63;36.71;102055.13;5076485;28;45442;-75
2023/05/02 01:16:06;;;;;;;;;2.00;2.00;;;;;23.56;36.67;102046.16;5076904;28;45451;-76
2023/05/02 01:18:34;;;;;;;;;3.67;2.67;;;;;23.62;36.76;102054.31;5076860;28;45406;-76
2023/05/02 01:21:03;;;;;;;;;1.33;1.33;;;;;23.57;36.40;102053.13;5076819;27;45567;-75
2023/05/02 01:23:52;;;;;;;;;3.00;3.00;;;;;23.61;36.60;102055.31;5076460;28;45546;-77
2023/05/02 01:26:28;;;;;;;;;3.00;3.00;;;;;23.61;36.67;102054.47;5065638;27;45696;-76
2023/05/02 01:28:58;;;;;;;;;4.00;3.00;;;;;23.61;36.81;102057.97;5056180;28;45318;-77
2023/05/02 01:31:26;;;;;;;;;4.00;3.00;;;;;23.61;36.66;102057.97;5056414;28;45336;-76
2023/05/02 01:33:53;;;;;;;;;2.67;2.00;;;;;23.43;36.84;102023.50;5073046;28;47373;-77
2023/05/02 01:36:20;;;;;;;;;3.33;3.00;;;;;23.56;36.76;102049.63;5076488;28;45393;-76
2023/05/02 01:38:47;;;;;;;;;1.33;1.33;;;;;23.55;36.38;102045.31;5076408;28;45273;-76
2023/05/02 01:41:13;;;;;;;;;3.67;3.00;;;;;23.61;36.52;102059.78;5076576;28;45526;-76
2023/05/02 01:43:40;;;;;;;;;1.00;1.00;;;;;23.52;36.25;102037.69;5075854;27;46395;-76
2023/05/02 01:46:09;;;;;;;;;3.67;3.00;;;;;23.33;36.68;102012.19;5076337;28;45479;-76
2023/05/02 01:48:35;;;;;;;;;2.33;2.33;;;;;23.62;36.40;102051.66;5076501;27;45285;-75
2023/05/02 01:51:03;;;;;;;;;3.00;1.67;;;;;23.58;36.55;102046.81;5076416;27;45233;-76
2023/05/02 01:53:32;;;;;;;;;1.00;1.00;;;;;23.62;36.21;102062.28;5076046;28;46368;-75
2023/05/02 01:55:58;;;;;;;;;3.00;3.00;;;;;23.62;36.43;102064.09;5057633;28;45782;-76
2023/05/02 01:58:28;;;;;;;;;1.67;1.67;;;;;23.58;36.45;102065.41;5076407;28;45437;-76
2023/05/02 02:00:55;;;;;;;;;3.00;1.67;;;;;23.63;36.07;102073.72;5076239;27;45357;-75
2023/05/02 02:03:21;;;;;;;;;2.00;2.00;;;;;23.27;36.46;102013.66;5076019;28;46367;-75
2023/05/02 02:05:48;;;;;;;;;3.00;3.00;;;;;23.63;36.15;102073.72;5076134;28;45402;-75
2023/05/02 02:08:13;;;;;;;;;4.00;2.00;;;;;23.64;36.58;102070.09;5074997;28;45293;-75
2023/05/02 02:10:42;;;;;;;;;1.00;1.00;;;;;23.59;36.61;102075.88;5075857;27;45424;-75
2023/05/02 02:13:17;;;;;;;;;1.00;1.00;;;;;23.63;36.74;102077.22;5076047;28;45428;-75
2023/05/02 02:15:47;;;;;;;;;1.33;1.33;;;;;23.31;36.55;102027.44;5075933;28;45408;-75
2023/05/02 02:18:18;;;;;;;;;1.00;1.00;;;;;23.49;36.68;102057.44;5076008;28;45265;-76
2023/05/02 02:20:45;;;;;;;;;2.67;2.67;;;;;23.63;36.35;102079.03;5075915;27;45324;-75
2023/05/02 02:23:13;;;;;;;;;2.00;2.00;;;;;23.61;36.52;102089.84;5075639;28;46244;-75
2023/05/02 02:25:39;;;;;;;;;3.00;3.00;;;;;23.51;36.71;102067.88;5075552;27;45390;-75
2023/05/02 02:28:06;;;;;;;;;3.67;3.00;;;;;23.50;36.45;102071.53;5075830;27;45345;-76
2023/05/02 02:30:32;;;;;;;;;2.00;2.00;;;;;23.60;36.29;102092.66;5075823;27;45452;-76
2023/05/02 02:32:57;;;;;;;;;2.67;1.67;;;;;23.57;36.61;102092.97;5075452;27;46222;-76
2023/05/02 02:35:29;;;;;;;;;2.33;2.33;;;;;23.39;36.29;102069.97;5075773;28;45324;-76
2023/05/02 02:38:04;;;;;;;;;2.00;2.00;;;;;23.60;36.76;102088.16;5075883;28;45282;-75
2023/05/02 02:40:37;;;;;;;;;2.67;2.67;;;;;23.58;36.33;102086.66;5075084;28;45455;-75
2023/05/02 02:43:19;;;;;;;;;2.00;2.00;;;;;23.52;36.45;102069.56;5075327;27;45379;-76
2023/05/02 02:46:20;;;;;;;;;3.67;3.00;;;;;23.59;36.10;102089.16;5075563;28;45380;-76
2023/05/02 02:49:12;;;;;;;;;2.00;2.00;;;;;23.58;36.08;102084.84;5075786;27;45301;-76
2023/05/02 02:51:43;;;;;;;;;1.33;1.33;;;;;23.59;36.19;102098.97;5075706;28;45288;-75
2023/05/02 02:54:23;;;;;;;;;3.00;2.00;;;;;23.25;36.43;102042.19;5074801;27;46442;-75
2023/05/02 02:57:06;;;;;;;;;1.67;1.67;;;;;23.47;36.23;102082.47;5075400;28;45265;-75
2023/05/02 02:59:37;;;;;;;;;2.67;1.67;;;;;23.45;36.53;102079.94;5075486;27;45344;-76
2023/05/02 03:02:07;;;;;;;;;3.00;3.00;;;;;23.46;36.50;102078.97;5075350;28;45171;-76
2023/05/02 03:04:35;;;;;;;;;2.00;1.00;;;;;23.55;36.01;102093.13;5075218;28;47552;-75
2023/05/02 03:07:00;;;;;;;;;1.67;1.67;;;;;23.58;36.08;102103.44;5075292;28;45498;-76
2023/05/02 03:09:29;;;;;;;;;1.67;1.33;;;;;23.50;36.59;102093.63;5075042;28;45333;-75
2023/05/02 03:11:55;;;;;;;;;2.00;1.00;;;;;23.49;36.25;102096.41;5075426;28;45429;-76
2023/05/02 03:14:20;;;;;;;;;3.67;2.00;;;;;23.47;36.31;102085.13;5075140;28;46487;-75
2023/05/02 03:16:46;;;;;;;;;2.67;2.67;;;;;23.54;35.97;102098.59;5075145;28;45462;-76
2023/05/02 03:19:11;;;;;;;;;2.00;2.00;;;;;23.52;36.33;102096.13;5076560;28;45266;-74
2023/05/02 03:21:37;;;;;;;;;4.67;1.67;;;;;23.59;36.37;102105.13;5078667;27;45304;-74
2023/05/02 03:24:03;;;;;;;;;2.00;2.00;;;;;23.49;36.38;102091.97;5078232;27;46274;-76
2023/05/02 03:26:29;;;;;;;;;3.00;2.00;;;;;23.49;36.02;102088.44;5078494;27;45310;-75
2023/05/02 03:28:55;;;;;;;;;1.00;1.00;;;;;23.60;36.22;102114.72;5078589;27;45233;-75
2023/05/02 03:31:21;;;;;;;;;1.00;1.00;;;;;23.37;35.92;102080.75;5078662;28;45426;-75
2023/05/02 03:33:47;;;;;;;;;0.00;0.00;;;;;23.62;36.05;102122.56;5078101;27;46284;-75
2023/05/02 03:36:13;;;;;;;;;1.33;1.00;;;;;23.51;35.90;102113.88;5078423;28;45407;-76
2023/05/02 03:38:39;;;;;;;;;2.00;2.00;;;;;23.60;35.88;102122.69;5078072;28;45360;-76
2023/05/02 03:41:04;;;;;;;;;3.00;3.00;;;;;23.60;36.41;102127.22;5078492;27;45416;-75
2023/05/02 03:43:30;;;;;;;;;1.00;1.00;;;;;23.44;36.00;102104.03;5078192;27;46105;-75
2023/05/02 03:45:55;;;;;;;;;2.00;2.00;;;;;23.55;36.40;102114.38;5078331;28;45344;-75
2023/05/02 03:48:21;;;;;;;;;4.00;2.67;;;;;23.48;35.71;102110.66;5078519;27;45606;-76
2023/05/02 03:50:47;;;;;;;;;3.67;1.00;;;;;23.58;36.37;102132.66;5078391;27;45362;-75
2023/05/02 03:53:14;;;;;;;;;2.67;2.00;;;;;23.57;36.45;102128.34;5077803;27;46198;-75
2023/05/02 03:55:41;;;;;;;;;2.33;2.00;;;;;23.57;36.30;102125.69;5077964;27;45376;-75
2023/05/02 03:58:07;;;;;;;;;3.00;3.00;;;;;23.49;36.41;102113.22;5078169;28;45368;-75
2023/05/02 04:00:32;;;;;;;;;3.00;2.00;;;;;23.57;36.07;102128.34;5078140;28;45310;-76
2023/05/02 04:03:00;;;;;;;;;2.33;2.33;;;;;23.52;36.14;102120.03;5077889;27;45395;-76
2023/05/02 04:05:25;;;;;;;;;1.33;1.00;;;;;23.45;36.02;102110.97;5078123;28;45405;-74
2023/05/02 04:07:51;;;;;;;;;2.00;2.00;;;;;23.42;35.95;102120.09;5077558;28;45384;-75
2023/05/02 04:10:17;;;;;;;;;2.00;2.00;;;;;23.48;36.08;102123.94;5078016;27;45273;-74
2023/05/02 04:12:42;;;;;;;;;2.33;2.33;;;;;23.58;36.23;102145.94;5077676;27;46482;-75
2023/05/02 04:15:09;;;;;;;;;4.00;2.00;;;;;23.54;35.80;102141.09;5077856;28;45286;-75
2023/05/02 04:17:34;;;;;;;;;2.00;2.00;;;;;23.47;35.79;102123.09;5077898;27;45322;-76
2023/05/02 04:20:00;;;;;;;;;2.00;2.00;;;;;23.58;36.33;102145.09;5077872;27;45440;-75
2023/05/02 04:22:26;;;;;;;;;2.00;2.00;;;;;23.54;36.43;102147.25;5077182;27;47379;-76
2023/05/02 04:24:52;;;;;;;;;2.33;2.33;;;;;23.55;35.74;102156.06;5077545;28;45455;-76
2023/05/02 04:27:17;;;;;;;;;3.00;1.33;;;;;23.56;36.40;102147.09;5077773;27;45395;-76
2023/05/02 04:29:42;;;;;;;;;1.00;1.00;;;;;23.49;36.22;102141.56;5077644;27;45273;-75
2023/05/02 04:32:09;;;;;;;;;3.00;1.33;;;;;23.55;35.71;102153.41;5076393;28;46944;-75
2023/05/02 04:34:34;;;;;;;;;2.33;2.00;;;;;23.54;36.04;102154.41;5077595;28;45351;-75
2023/05/02 04:37:00;;;;;;;;;3.67;2.00;;;;;23.46;36.43;102142.72;5077182;27;45711;-76
2023/05/02 04:39:25;;;;;;;;;2.00;2.00;;;;;23.45;36.15;102145.50;5077297;28;45458;-75
2023/05/02 04:41:51;;;;;;;;;1.00;1.00;;;;;23.42;36.16;102141.34;5077253;27;45477;-76
2023/05/02 04:44:16;;;;;;;;;1.67;1.67;;;;;23.52;36.27;102152.72;5077253;28;45452;-75
2023/05/02 04:46:41;;;;;;;;;2.00;2.00;;;;;23.55;35.68;102159.53;5077535;27;45470;-76
2023/05/02 04:49:07;;;;;;;;;2.00;2.00;;;;;23.55;35.86;102164.03;5059190;28;45356;-76
2023/05/02 04:51:32;;;;;;;;;2.00;2.00;;;;;23.54;35.84;102163.19;5076654;28;46456;-76
2023/05/02 04:53:58;;;;;;;;;0.67;0.67;;;;;23.44;36.12;102151.84;5077380;28;45433;-76
2023/05/02 04:56:23;;;;;;;;;2.00;2.00;;;;;23.53;35.76;102164.19;5077252;27;45620;-75
2023/05/02 04:58:48;;;;;;;;;2.33;2.33;;;;;23.50;35.74;102169.81;5077193;28;45283;-76
2023/05/02 05:01:14;;;;;;;;;2.00;2.00;;;;;23.47;36.10;102157.63;5077078;28;45996;-75
2023/05/02 05:03:39;;;;;;;;;1.33;1.33;;;;;23.54;35.88;102175.66;5076962;27;45438;-75
2023/05/02 05:06:04;;;;;;;;;1.33;1.33;;;;;23.50;36.14;102161.84;5076907;28;45328;-75
2023/05/02 05:08:30;;;;;;;;;1.00;1.00;;;;;23.54;36.02;102175.66;5077019;28;45516;-75
2023/05/02 05:10:55;;;;;;;;;1.33;1.33;;;;;23.54;35.67;102170.34;5076713;28;46217;-76
2023/05/02 05:13:21;;;;;;;;;1.00;1.00;;;;;23.52;35.74;102173.97;5076972;27;45379;-76
2023/05/02 05:15:46;;;;;;;;;3.00;2.67;;;;;23.53;35.98;102177.47;5058519;28;45342;-76
2023/05/02 05:18:12;;;;;;;;;2.00;2.00;;;;;23.53;35.57;102182.78;5077006;28;45263;-76
2023/05/02 05:20:37;;;;;;;;;3.00;2.00;;;;;23.40;35.69;102167.22;5076388;27;47119;-75
2023/05/02 05:23:02;;;;;;;;;1.00;1.00;;;;;23.40;36.19;102176.03;5076495;28;45354;-76
2023/05/02 05:25:28;;;;;;;;;2.00;2.00;;;;;23.50;35.67;102188.41;5076793;27;45426;-75
2023/05/02 05:27:55;;;;;;;;;1.00;1.00;;;;;23.47;35.72;102186.84;5076657;27;45486;-76
2023/05/02 05:30:20;;;;;;;;;2.33;2.33;;;;;23.14;35.83;102142.34;5076557;27;47158;-76
2023/05/02 05:32:46;;;;;;;;;2.00;2.00;;;;;23.47;35.67;102197.47;5076316;28;45387;-75
2023/05/02 05:35:11;;;;;;;;;3.00;3.00;;;;;23.32;35.93;102183.94;5076253;28;45382;-75
2023/05/02 05:37:38;;;;;;;;;4.00;2.00;;;;;23.52;35.62;102207.69;5076590;28;45336;-76
2023/05/02 05:40:08;;;;;;;;;1.00;1.00;;;;;23.51;35.95;102217.47;5076445;28;45955;-75
2023/05/02 05:42:33;;;;;;;;;2.00;2.00;;;;;23.54;35.65;102221.66;5075999;28;45363;-75
2023/05/02 05:44:59;;;;;;;;;4.33;3.00;;;;;23.52;35.59;102221.78;5076429;27;45281;-76
2023/05/02 05:47:24;;;;;;;;;2.33;2.00;;;;;23.46;35.86;102216.25;5076467;28;45395;-76
2023/05/02 05:49:53;;;;;;;;;2.33;1.33;;;;;23.44;35.97;102216.41;5075850;27;46787;-76
2023/05/02 05:52:19;;;;;;;;;3.00;2.00;;;;;23.45;36.16;102217.22;5076478;27;45405;-75
2023/05/02 05:54:45;;;;;;;;;3.00;2.00;;;;;23.45;35.64;102215.41;5076291;28;45482;-74
2023/05/02 05:57:10;;;;;;;;;4.00;2.00;;;;;23.46;36.02;102216.25;5076190;27;45562;-76
2023/05/02 05:59:35;;;;;;;;;2.00;2.00;;;;;23.52;35.59;102227.09;5076258;28;46212;-75
2023/05/02 06:02:01;;;;;;;;;2.00;2.00;;;;;23.55;36.16;102233.91;5076131;27;45353;-76
2023/05/02 06:04:26;;;;;;;;;2.00;2.00;;;;;23.47;35.75;102232.00;5075905;28;45279;-75
2023/05/02 06:06:52;;;;;;;;;3.33;3.33;;;;;23.56;35.80;102240.06;5076146;28;45334;-76
2023/05/02 06:09:18;;;;;;;;;2.00;2.00;;;;;23.44;35.47;102224.38;5075855;28;47154;-75
2023/05/02 06:11:43;;;;;;;;;2.00;2.00;;;;;23.56;35.87;102256.00;5075992;28;45989;-75
2023/05/02 06:14:08;;;;;;;;;2.33;2.33;;;;;23.49;36.08;102242.50;5076128;28;45435;-75
2023/05/02 06:16:34;;;;;;;;;3.33;2.00;;;;;23.57;35.55;102255.88;5076062;28;45541;-75
2023/05/02 06:18:59;;;;;;;;;1.00;1.00;;;;;23.57;35.56;102265.66;5075604;28;45906;-75
2023/05/02 06:21:25;;;;;;;;;2.67;2.00;;;;;23.57;35.96;102266.50;5075815;28;45392;-76
2023/05/02 06:23:51;;;;;;;;;3.00;3.00;;;;;23.51;36.00;102265.28;5075921;27;45316;-76
2023/05/02 06:26:16;;;;;;;;;5.67;3.33;;;;;23.59;35.55;102272.47;5075848;28;45550;-76
2023/05/02 06:28:41;;;;;;;;;2.33;2.33;;;;;23.50;35.48;102257.47;5075596;27;45967;-76
2023/05/02 06:31:07;;;;;;;;;3.00;2.33;;;;;23.59;35.79;102271.66;5075815;28;45382;-75
2023/05/02 06:33:33;;;;;;;;;3.67;2.00;;;;;23.48;35.93;102260.25;5075422;28;45387;-75
2023/05/02 06:35:58;;;;;;;;;3.33;3.33;;;;;23.56;35.83;102263.97;5075930;28;45270;-75
2023/05/02 06:38:24;;;;;;;;;1.00;1.00;;;;;23.59;35.78;102275.13;5075632;28;47139;-75
2023/05/02 06:40:50;;;;;;;;;2.00;1.67;;;;;23.48;35.91;102259.41;5075393;27;45343;-75
2023/05/02 06:43:16;;;;;;;;;3.00;2.33;;;;;23.60;35.76;102283.94;5075517;28;45284;-75
2023/05/02 06:45:41;;;;;;;;;3.00;3.00;;;;;23.60;36.02;102286.59;5075659;28;45230;-75
2023/05/02 06:48:07;;;;;;;;;2.00;2.00;;;;;23.55;35.96;102283.59;5075110;27;46222;-75
2023/05/02 06:50:33;;;;;;;;;3.33;3.33;;;;;23.47;35.72;102271.84;5075553;28;45306;-75
2023/05/02 06:52:58;;;;;;;;;3.33;3.33;;;;;23.54;35.69;102284.56;5075655;28;45468;-76
2023/05/02 06:55:24;;;;;;;;;4.33;3.33;;;;;23.47;35.92;102271.84;5078523;27;45296;-75
2023/05/02 06:57:50;;;;;;;;;2.33;2.00;;;;;23.57;35.63;102285.09;5078780;27;47047;-75
2023/05/02 07:00:16;;;;;;;;;2.00;2.00;;;;;23.50;35.71;102276.91;5060796;28;45594;-75
2023/05/02 07:02:43;;;;;;;;;5.00;2.00;;;;;23.44;36.08;102268.69;5078822;28;45426;-75
2023/05/02 07:05:08;;;;;;;;;3.33;3.00;;;;;23.58;36.15;102304.50;5060648;28;45429;-77
2023/05/02 07:07:33;;;;;;;;;3.33;1.67;;;;;23.54;36.01;102297.84;5078839;27;45602;-75
2023/05/02 07:09:59;;;;;;;;;2.00;2.00;;;;;23.50;36.05;102284.03;5078878;28;45551;-76
2023/05/02 07:12:25;;;;;;;;;4.33;3.00;;;;;23.59;35.80;102298.22;5060700;27;45377;-74
2023/05/02 07:14:51;;;;;;;;;2.67;2.33;;;;;23.47;36.05;102279.00;5078874;27;45550;-81
2023/05/02 07:17:16;;;;;;;;;6.25;6.00;;;;;23.58;35.62;102297.38;5078317;27;45231;-76
2023/05/02 07:19:42;;;;;;;;;7.00;5.75;;;;;23.36;35.79;102264.16;5078678;28;45380;-77
2023/05/02 07:22:07;;;;;;;;;7.67;6.33;;;;;23.58;35.50;102304.50;5078565;27;45292;-73
2023/05/02 07:24:32;;;;;;;;;5.33;5.33;;;;;23.57;36.02;102302.84;5078757;28;45464;-76
2023/05/02 07:26:58;;;;;;;;;6.50;5.75;;;;;23.58;35.72;102296.53;5078479;27;45911;-73
2023/05/02 07:29:23;;;;;;;;;7.50;5.25;;;;;23.64;35.84;102303.91;5078253;28;45393;-76
2023/05/02 07:31:49;;;;;;;;;6.33;5.00;;;;;23.69;36.11;102308.72;5078649;28;45381;-74
2023/05/02 07:34:14;;;;;;;;;10.25;8.75;;;;;23.72;35.52;102316.41;5078426;27;45321;-74
2023/05/02 07:36:40;;;;;;;;;12.75;9.25;;;;;23.69;35.55;102306.91;5078553;28;45467;-84
2023/05/02 07:39:05;;;;;;;;;10.00;7.00;;;;;23.74;35.70;102309.09;5078294;27;45315;-78
2023/05/02 07:41:30;;;;;;;;;7.75;7.00;;;;;23.81;35.58;102317.31;5078528;28;45575;-79
2023/05/02 07:43:56;;;;;;;;;10.00;7.25;;;;;23.89;35.64;102312.00;5077957;28;45494;-75
2023/05/02 07:46:22;;;;;;;;;9.75;4.75;;;;;23.92;35.48;102306.38;5077707;28;46512;-75
2023/05/02 07:48:47;;;;;;;;;8.75;7.00;;;;;24.06;36.04;102312.94;5078271;27;45246;-76
2023/05/02 07:51:13;;;;;;;;;7.25;5.00;;;;;24.14;35.58;102308.66;5078250;27;45375;-76
2023/05/02 07:53:38;;;;;;;;;8.50;7.25;;;;;24.22;36.13;102307.88;5078374;28;45216;-77
2023/05/02 07:56:05;;;;;;;;;7.00;5.00;;;;;24.00;35.73;102259.56;5077996;27;47169;-76
2023/05/02 07:58:31;;;;;;;;;7.00;6.00;;;;;24.35;35.89;102318.94;5076705;27;45293;-74
2023/05/02 08:00:56;;;;;;;;;6.33;4.33;;;;;24.43;35.73;102315.47;5077235;28;45232;-75
2023/05/02 08:03:21;;;;;;;;;6.00;5.00;;;;;24.50;35.46;102323.63;5077367;28;45259;-75
2023/05/02 08:05:47;;;;;;;;;7.00;7.00;;;;;24.39;35.37;102285.69;5076259;28;45910;-76
2023/05/02 08:08:12;;;;;;;;;9.67;7.67;;;;;24.45;35.40;102294.84;5077820;28;45232;-77
2023/05/02 08:10:37;;;;;;;;;5.00;5.00;;;;;24.62;35.12;102309.03;5078078;28;45278;-76
2023/05/02 08:13:03;;;;;;;;;6.00;6.00;;;;;24.56;35.43;102295.53;5077707;27;45252;-78
2023/05/02 08:15:29;;;;;;;;;6.33;4.00;;;;;24.71;35.17;102311.72;5077567;28;45425;-76
2023/05/02 08:17:55;;;;;;;;;7.33;5.00;;;;;24.68;35.51;102299.56;5077836;28;45717;-75
2023/05/02 08:20:21;;;;;;;;;5.67;5.67;;;;;24.78;35.24;102315.38;5077413;28;45478;-75
2023/05/02 08:22:47;;;;;;;;;7.00;6.67;;;;;24.81;35.45;102320.38;5077578;27;46014;-75
2023/05/02 08:25:12;;;;;;;;;4.00;3.00;;;;;24.78;35.16;102309.22;5077461;28;47099;-81
2023/05/02 08:27:37;;;;;;;;;5.33;5.00;;;;;24.85;35.64;102315.56;5077528;28;45403;-77
2023/05/02 08:30:03;;;;;;;;;7.00;3.67;;;;;24.85;35.21;102310.25;5077861;28;45366;-79
2023/05/02 08:32:28;;;;;;;;;4.33;4.33;;;;;24.86;35.79;102306.56;5077485;28;45360;-79
2023/05/02 08:34:55;;;;;;;;;5.00;4.33;;;;;24.93;35.40;102312.09;5077394;28;46214;-78
2023/05/02 08:37:21;;;;;;;;;4.00;3.33;;;;;24.94;35.45;102314.59;5077387;28;45518;-78
2023/05/02 08:39:46;;;;;;;;;5.33;4.67;;;;;24.87;35.45;102288.78;5077190;28;45423;-77
2023/05/02 08:42:12;;;;;;;;;6.33;5.67;;;;;24.87;35.29;102288.78;5076956;28;45303;-79
2023/05/02 08:44:37;;;;;;;;;5.67;4.33;;;;;24.78;35.47;102271.97;5077119;28;45375;-80
2023/05/02 08:47:03;;;;;;;;;4.00;4.00;;;;;24.91;35.48;102284.78;5058906;27;45401;-79
2023/05/02 08:49:32;;;;;;;;;5.33;5.00;;;;;24.94;35.45;102295.09;5077261;27;45408;-80
2023/05/02 08:51:59;;;;;;;;;3.00;3.00;;;;;24.95;35.37;102283.47;5077241;27;45396;-79
2023/05/02 08:54:25;;;;;;;;;5.00;5.00;;;;;25.09;35.42;102305.13;5076936;28;46292;-80
2023/05/02 08:56:53;;;;;;;;;7.00;5.00;;;;;25.11;35.35;102301.28;5076506;28;45352;-79
2023/05/02 08:59:19;;;;;;;;;5.67;5.67;;;;;25.13;35.45;102301.16;5077146;28;45388;-76
2023/05/02 09:01:54;;;;;;;;;3.67;3.33;;;;;25.06;35.27;102291.16;5076993;28;45527;-75
2023/05/02 09:04:23;;;;;;;;;4.00;4.00;;;;;25.17;35.48;102300.66;5076990;27;45390;-77
2023/05/02 09:06:48;;;;;;;;;8.00;4.67;;;;;25.13;35.67;102295.81;5076902;28;45253;-78
2023/05/02 09:09:13;;;;;;;;;9.00;5.00;;;;;25.21;35.58;102303.81;5076867;27;45475;-76
2023/05/02 09:11:40;;;;;;;;;5.00;3.33;;;;;25.23;35.63;102299.16;5076774;27;45244;-76
2023/05/02 09:14:16;;;;;;;;;9.00;4.33;;;;;25.22;35.53;102286.81;5076815;28;46393;-76
2023/05/02 09:16:41;;;;;;;;;4.33;4.33;;;;;25.17;35.62;102281.16;5076282;27;45334;-75
2023/05/02 09:19:08;;;;;;;;;4.67;3.67;;;;;25.18;35.88;102280.19;5076723;28;45267;-76
2023/05/02 09:21:40;;;;;;;;;4.00;4.00;;;;;25.26;35.78;102295.31;5076806;28;45571;-76
2023/05/02 09:24:17;;;;;;;;;6.00;3.33;;;;;25.32;35.86;102302.63;5076428;28;47119;-77
2023/05/02 09:26:56;;;;;;;;;6.00;5.00;;;;;25.24;35.90;102292.00;5076300;27;45320;-75
2023/05/02 09:29:22;;;;;;;;;6.00;5.00;;;;;25.21;35.77;102287.84;5076564;27;45422;-75
2023/05/02 09:31:48;;;;;;;;;7.00;7.00;;;;;25.28;35.65;102288.81;5076767;28;45573;-72
2023/05/02 09:34:15;;;;;;;;;7.33;4.33;;;;;25.38;36.17;102309.13;5076436;28;45418;-73
2023/05/02 09:36:46;;;;;;;;;5.00;4.00;;;;;25.38;36.01;102303.78;5076479;28;45435;-73
2023/05/02 09:39:17;;;;;;;;;7.00;6.00;;;;;25.37;36.00;102302.16;5076153;28;45387;-73
2023/05/02 09:41:45;;;;;;;;;2.33;2.33;;;;;25.34;36.14;102305.16;5076057;28;45248;-72
2023/05/02 09:44:12;;;;;;;;;3.33;3.33;;;;;25.39;36.32;102310.81;5076038;28;46212;-73
2023/05/02 09:46:44;;;;;;;;;7.33;4.33;;;;;25.40;36.54;102309.78;5076267;28;45360;-72
2023/05/02 09:49:09;;;;;;;;;3.67;3.67;;;;;25.37;37.03;102307.47;5076363;27;45382;-74
2023/05/02 09:51:35;;;;;;;;;8.67;4.33;;;;;25.25;36.48;102294.47;5076235;27;45418;-75
2023/05/02 09:54:00;;;;;;;;;7.33;4.33;;;;;25.35;36.82;102312.13;5076143;28;46663;-72
2023/05/02 09:56:26;;;;;;;;;5.00;4.33;;;;;25.32;37.01;102315.94;5075867;28;45253;-73
2023/05/02 09:58:51;;;;;;;;;6.33;3.00;;;;;25.34;37.30;102315.81;5076244;28;45338;-71
2023/05/02 10:01:18;;;;;;;;;6.33;5.00;;;;;25.33;36.76;102317.63;5075973;28;49885;-73
2023/05/02 10:03:47;;;;;;;;;5.33;3.33;;;;;25.22;36.82;102307.28;5075805;27;46606;-75
2023/05/02 10:06:17;;;;;;;;;5.33;5.00;;;;;25.31;36.54;102316.13;5076073;28;45391;-77
2023/05/02 10:08:46;;;;;;;;;6.67;4.67;;;;;25.14;36.38;102297.47;5076055;28;45341;-74
2023/05/02 10:11:12;;;;;;;;;6.33;3.67;;;;;25.26;36.10;102317.47;5075864;28;45486;-75
2023/05/02 10:13:41;;;;;;;;;6.00;5.00;;;;;25.16;36.60;102306.97;5075892;28;46904;-77
2023/05/02 10:16:11;;;;;;;;;5.00;4.00;;;;;25.12;35.99;102310.13;5076001;28;45365;-75
2023/05/02 10:18:47;;;;;;;;;4.00;4.00;;;;;25.20;35.81;102325.28;5076208;28;45564;-75
2023/05/02 10:21:19;;;;;;;;;4.00;3.33;;;;;25.17;35.58;102329.94;5076071;28;45396;-73
2023/05/02 10:23:45;;;;;;;;;3.33;2.33;;;;;25.17;35.55;102319.28;5075229;28;46405;-75
2023/05/02 10:26:15;;;;;;;;;3.33;3.33;;;;;25.09;35.56;102297.97;5075736;27;45254;-77
2023/05/02 10:28:41;;;;;;;;;3.00;3.00;;;;;25.09;35.71;102315.78;5076324;27;45420;-75
2023/05/02 10:31:11;;;;;;;;;3.33;3.33;;;;;25.14;35.73;102319.63;5073916;28;45533;-72
2023/05/02 10:33:38;;;;;;;;;3.67;3.00;;;;;25.14;35.65;102324.94;5067598;28;45501;-73
2023/05/02 10:36:06;;;;;;;;;3.00;3.00;;;;;25.14;35.40;102332.09;5059020;28;45676;-73
2023/05/02 10:38:32;;;;;;;;;3.67;3.00;;;;;25.14;35.20;102319.63;5058555;28;45764;-73
2023/05/02 10:41:06;;;;;;;;;3.00;3.00;;;;;25.05;35.55;102301.97;5058669;28;45444;-73
2023/05/02 10:43:34;;;;;;;;;3.33;3.33;;;;;25.09;35.41;102315.78;5058580;28;47238;-72
2023/05/02 10:46:00;;;;;;;;;4.00;4.00;;;;;25.15;35.52;102318.63;5058851;28;45389;-72
2023/05/02 10:48:26;;;;;;;;;2.33;2.33;;;;;25.05;36.02;102297.50;5059039;28;45698;-72
2023/05/02 10:50:53;;;;;;;;;5.67;4.00;;;;;25.07;35.76;102297.31;5058604;28;45323;-74
2023/05/02 10:53:26;;;;;;;;;4.33;3.00;;;;;25.15;36.04;102315.97;5058424;28;46241;-74
2023/05/02 10:56:16;;;;;;;;;3.33;3.33;;;;;25.15;36.09;102323.13;5058575;28;45389;-73
2023/05/02 10:58:45;;;;;;;;;5.00;3.67;;;;;25.16;36.11;102320.28;5058735;28;45349;-72
2023/05/02 11:01:35;;;;;;;;;3.00;3.00;;;;;25.16;36.22;102311.47;5058972;28;45317;-72
2023/05/02 11:04:07;;;;;;;;;3.00;2.33;;;;;25.15;36.12;102315.13;5058241;28;45736;-72
2023/05/02 11:06:36;;;;;;;;;3.33;1.67;;;;;25.06;36.51;102311.59;5058586;28;45374;-73
2023/05/02 11:09:17;;;;;;;;;2.00;1.00;;;;;25.13;36.18;102317.97;5058377;28;45451;-73
2023/05/02 11:11:51;;;;;;;;;4.00;2.67;;;;;25.03;35.99;102299.47;5058591;28;45538;-72
2023/05/02 11:14:25;;;;;;;;;3.67;2.33;;;;;25.11;36.57;102311.13;5058146;28;46443;-76
2023/05/02 11:16:59;;;;;;;;;3.00;3.00;;;;;25.08;36.37;102306.97;5058385;28;45237;-73
2023/05/02 11:19:28;;;;;;;;;2.00;1.67;;;;;25.08;36.70;102314.97;5058272;28;45458;-73
2023/05/02 11:22:26;;;;;;;;;3.33;3.33;;;;;25.07;36.43;102310.63;5057704;28;45420;-73
2023/05/02 11:24:52;;;;;;;;;2.00;0.00;;;;;24.97;36.75;102308.09;5079466;27;47614;-81
2023/05/02 11:27:30;;;;;;;;;2.00;2.00;;;;;25.04;36.76;102337.56;5086471;27;45910;-76